createdAt,value
2023-02-01T06:56:58.573Z,6.00
2023-02-01T07:02:00.698Z,6.00
2023-02-01T07:07:02.637Z,6.00
2023-02-01T07:12:04.855Z,6.00
2023-02-01T07:17:06.887Z,6.00
2023-02-01T07:22:08.817Z,5.90
2023-02-01T07:27:10.737Z,5.90
2023-02-01T07:32:12.770Z,5.90
2023-02-01T07:37:15.029Z,5.90
2023-02-01T07:42:17.078Z,5.90
2023-02-01T07:47:19.097Z,5.90
2023-02-01T07:52:21.403Z,5.90
2023-02-01T07:57:25.273Z,6.00
2023-02-01T08:02:27.314Z,6.00
2023-02-01T08:07:29.309Z,6.00
2023-02-01T08:12:31.244Z,6.00
2023-02-01T08:17:33.278Z,6.10
2023-02-01T08:22:35.268Z,6.20
2023-02-01T08:27:37.820Z,6.20
2023-02-01T08:32:40.037Z,6.30
2023-02-01T08:37:41.908Z,6.40
2023-02-01T08:42:52.669Z,6.40
2023-02-01T08:47:54.999Z,6.50
2023-02-01T08:52:56.880Z,6.60
2023-02-01T08:57:58.867Z,6.60
2023-02-01T09:03:00.718Z,6.60
2023-02-01T09:08:02.596Z,6.70
2023-02-01T09:13:04.501Z,6.70
2023-02-01T09:18:06.592Z,6.80
2023-02-01T09:23:08.495Z,6.80
2023-02-01T09:28:10.394Z,6.90
2023-02-01T09:33:12.294Z,6.90
2023-02-01T09:38:14.100Z,7.00
2023-02-01T09:43:40.955Z,7.00
2023-02-01T09:48:44.061Z,7.00
2023-02-01T09:53:51.633Z,7.10
2023-02-01T09:59:03.185Z,7.10
2023-02-01T10:04:14.075Z,7.20
2023-02-01T10:09:18.345Z,7.30
2023-02-01T10:14:45.175Z,7.40
2023-02-01T10:20:29.077Z,7.60
2023-02-01T10:25:40.198Z,7.70
2023-02-01T10:30:45.977Z,7.80
2023-02-01T10:35:51.965Z,7.80
2023-02-01T10:40:56.497Z,7.80
2023-02-01T10:45:58.504Z,7.80
2023-02-01T10:51:11.021Z,7.80
2023-02-01T10:56:17.190Z,7.90
2023-02-01T11:01:28.826Z,7.90
2023-02-01T11:06:38.952Z,7.90
2023-02-01T11:11:50.099Z,7.90
2023-02-01T11:17:13.865Z,7.90
2023-02-01T11:22:15.946Z,7.90
2023-02-01T11:27:27.109Z,8.00
2023-02-01T11:32:30.141Z,8.10
2023-02-01T11:37:42.877Z,8.10
2023-02-01T11:43:08.517Z,8.10
2023-02-01T11:48:25.238Z,8.10
2023-02-01T11:53:43.688Z,8.10
2023-02-01T11:58:56.130Z,8.20
2023-02-01T12:04:10.150Z,8.10
2023-02-01T12:09:34.564Z,8.10
2023-02-01T12:14:45.957Z,8.20
2023-02-01T12:20:16.029Z,8.10
2023-02-01T12:25:27.252Z,8.10
2023-02-01T12:30:45.436Z,8.10
2023-02-01T12:35:53.545Z,8.10
2023-02-01T12:41:05.671Z,8.20
2023-02-01T12:46:22.287Z,8.20
2023-02-01T12:51:30.783Z,8.30
2023-02-01T12:56:32.605Z,8.30
2023-02-01T13:01:45.852Z,8.40
2023-02-01T13:06:55.054Z,8.40
2023-02-01T13:12:01.995Z,8.60
2023-02-01T13:17:08.766Z,8.60
2023-02-01T13:22:14.933Z,8.70
2023-02-01T13:27:18.125Z,8.70
2023-02-01T13:33:51.113Z,8.70
2023-02-01T13:38:35.665Z,8.70
2023-02-01T13:43:39.996Z,8.70
2023-02-01T13:48:53.201Z,8.80
2023-02-01T13:53:55.326Z,8.80
2023-02-01T13:58:57.498Z,8.70
2023-02-01T14:04:07.085Z,8.70
2023-02-01T14:09:08.968Z,8.70
2023-02-01T14:14:16.939Z,8.60
2023-02-01T14:19:25.198Z,8.60
2023-02-01T14:24:32.656Z,8.60
2023-02-01T14:29:35.781Z,8.50
2023-02-01T14:34:49.878Z,8.50
2023-02-01T14:40:14.329Z,8.50
2023-02-01T14:45:26.284Z,8.40
2023-02-01T14:50:33.429Z,8.40
2023-02-01T14:55:59.667Z,8.40
2023-02-01T15:01:04.640Z,8.40
2023-02-01T15:06:20.071Z,8.40
2023-02-01T15:11:21.899Z,8.40
2023-02-01T15:16:26.257Z,8.40
2023-02-01T15:21:31.060Z,8.40
2023-02-01T15:26:34.980Z,8.40
2023-02-01T15:31:45.968Z,8.40
2023-02-01T15:37:02.147Z,8.40
2023-02-01T15:42:16.600Z,8.40
2023-02-01T15:47:26.361Z,8.40
2023-02-01T15:52:40.609Z,8.40
2023-02-01T15:57:43.299Z,8.40
2023-02-01T16:02:55.306Z,8.40
2023-02-01T16:08:04.897Z,8.30
2023-02-01T16:13:07.172Z,8.30
2023-02-01T16:18:11.949Z,8.30
2023-02-01T16:23:13.925Z,8.30
2023-02-01T16:28:15.920Z,8.20
2023-02-01T16:33:21.691Z,8.20
2023-02-01T16:38:24.683Z,8.20
2023-02-01T16:43:27.371Z,8.20
2023-02-01T16:48:35.895Z,8.20
2023-02-01T16:53:52.375Z,8.20
2023-02-01T16:58:55.992Z,8.20
2023-02-01T18:30:38.383Z,8.20
2023-02-01T18:42:30.932Z,8.30
2023-02-01T19:18:06.434Z,8.40
2023-02-01T19:36:35.682Z,8.40
2023-02-01T19:41:56.773Z,8.50
2023-02-01T19:48:13.356Z,8.40
2023-02-01T20:36:47.021Z,8.30
2023-02-01T21:00:05.427Z,8.40
2023-02-01T22:00:55.704Z,8.60
2023-02-01T22:13:14.577Z,8.50
2023-02-01T22:24:01.869Z,8.50
2023-02-01T23:16:15.322Z,8.40
2023-02-01T23:22:20.390Z,8.40
2023-02-01T23:28:19.658Z,8.40
2023-02-01T23:40:05.408Z,8.30
2023-02-01T23:45:24.959Z,8.30
